Time;durP1;ratioP1;P1;durP2;ratioP2;P2;SDS_P1;SDS_P2;PMS_P1;PMS_P2;Temp;Humidity;BMP_temperature;BMP_pressure;BME280_temperature;BME280_humidity;BME280_pressure;Samples;Min_cycle;Max_cycle;Signal;HPM_P1;HPM_P2
2022/11/10 00:01:11;;;;;;;59.70;36.80;;;;;;;8.98;64.97;99185.23;227508;1234;138091;-63
2022/11/10 00:06:36;;;;;;;61.80;38.40;;;;;;;9.15;64.34;99189.27;226486;1241;138394;-61
2022/11/10 00:11:58;;;;;;;61.70;35.40;;;;;;;9.20;64.45;99195.90;226417;1242;137957;-65
2022/11/10 00:17:20;;;;;;;62.90;34.90;;;;;;;9.15;63.34;99197.09;227382;1237;138004;-75
2022/11/10 00:22:41;;;;;;;68.90;38.00;;;;;;;8.99;62.87;99201.45;226172;1244;138354;-66
2022/11/10 00:28:03;;;;;;;65.80;38.60;;;;;;;8.92;63.83;99207.86;226469;1235;138346;-66
2022/11/10 00:33:24;;;;;;;84.20;40.20;;;;;;;8.96;64.67;99208.85;227323;1237;138464;-62
2022/11/10 00:38:49;;;;;;;71.80;40.30;;;;;;;9.03;65.06;99206.36;226162;1244;138460;-62
2022/11/10 00:44:10;;;;;;;73.60;40.40;;;;;;;9.14;65.54;99208.64;227410;1228;139271;-63
2022/11/10 00:49:32;;;;;;;75.70;38.90;;;;;;;9.25;65.45;99210.66;227526;1234;138486;-62
2022/11/10 00:54:54;;;;;;;74.90;39.30;;;;;;;9.30;65.07;99208.68;227269;1237;137859;-63
2022/11/10 01:00:15;;;;;;;84.90;39.40;;;;;;;9.22;64.81;99213.83;227214;1237;139314;-66
2022/11/10 01:05:37;;;;;;;88.40;42.20;;;;;;;9.21;65.03;99215.11;226434;1243;138364;-70
2022/11/10 01:11:12;;;;;;;105.70;44.40;;;;;;;9.21;64.87;99214.78;226297;1237;138799;-68
2022/11/10 01:16:33;;;;;;;80.50;40.90;;;;;;;9.17;65.11;99221.89;227358;1232;138290;-64
2022/11/10 01:21:54;;;;;;;74.10;41.10;;;;;;;9.19;65.72;99216.67;226420;1249;138773;-72
2022/11/10 01:27:17;;;;;;;68.00;38.40;;;;;;;9.23;66.15;99215.73;226153;1252;138212;-71
2022/11/10 01:32:38;;;;;;;70.50;39.70;;;;;;;9.40;66.51;99211.84;227102;1245;139135;-69
2022/11/10 01:37:59;;;;;;;69.30;40.50;;;;;;;9.61;66.50;99212.07;227491;1240;138834;-64
2022/11/10 01:43:22;;;;;;;68.00;40.30;;;;;;;9.75;66.95;99227.42;226488;1240;138851;-66
2022/11/10 01:48:56;;;;;;;65.80;38.70;;;;;;;9.91;66.71;99235.56;226148;1237;138520;-64
2022/11/10 01:54:22;;;;;;;63.10;39.40;;;;;;;10.05;66.68;99228.23;226291;1250;138210;-66
2022/11/10 01:59:47;;;;;;;64.20;38.80;;;;;;;10.08;66.18;99229.98;226573;1249;139153;-62
2022/11/10 02:05:09;;;;;;;61.70;38.00;;;;;;;9.98;65.81;99237.85;227503;1237;140039;-62
2022/11/10 02:10:39;;;;;;;64.00;36.80;;;;;;;9.90;66.07;99242.88;226391;1242;138493;-61
2022/11/10 02:16:01;;;;;;;62.60;38.70;;;;;;;9.91;65.88;99243.89;226302;1248;138922;-64
2022/11/10 02:21:22;;;;;;;61.10;36.70;;;;;;;9.94;66.07;99243.70;227445;1238;139226;-64
2022/11/10 02:26:54;;;;;;;63.60;37.50;;;;;;;9.98;66.17;99245.30;226549;1249;138484;-66
2022/11/10 02:32:16;;;;;;;55.50;36.10;;;;;;;10.07;66.41;99252.40;226401;1248;138480;-64
2022/11/10 02:37:38;;;;;;;55.90;35.50;;;;;;;10.09;65.97;99257.95;226562;1254;138753;-65
2022/11/10 02:42:59;;;;;;;56.50;34.60;;;;;;;10.10;66.11;99266.42;226563;1249;139033;-65
2022/11/10 02:48:21;;;;;;;53.90;34.00;;;;;;;10.05;66.00;99269.16;226485;1237;139231;-70
2022/11/10 02:53:43;;;;;;;51.70;32.30;;;;;;;9.97;65.70;99266.25;226648;1238;139575;-68
2022/11/10 02:59:04;;;;;;;53.30;33.80;;;;;;;9.89;65.75;99261.55;227416;1240;139463;-69
2022/11/10 03:04:26;;;;;;;51.50;31.90;;;;;;;9.86;65.90;99261.20;226280;1255;139003;-62
2022/11/10 03:09:47;;;;;;;51.50;33.40;;;;;;;9.82;66.10;99268.70;226432;1238;138317;-65
2022/11/10 03:15:11;;;;;;;53.90;33.20;;;;;;;9.79;66.02;99270.97;227487;1241;138840;-63
2022/11/10 03:20:35;;;;;;;52.30;33.70;;;;;;;9.75;66.10;99272.62;226440;1245;138489;-65
2022/11/10 03:25:57;;;;;;;53.60;34.30;;;;;;;9.68;66.05;99278.46;227349;1248;138962;-65
2022/11/10 03:31:18;;;;;;;50.00;32.50;;;;;;;9.63;66.16;99284.40;226196;1251;139953;-65
2022/11/10 03:36:40;;;;;;;52.00;31.40;;;;;;;9.60;65.95;99282.63;227209;1244;138595;-64
2022/11/10 03:42:02;;;;;;;49.50;31.40;;;;;;;9.57;65.68;99281.17;226490;1233;138538;-64
2022/11/10 03:47:24;;;;;;;45.70;29.70;;;;;;;9.59;65.95;99286.24;227412;1234;138807;-67
2022/11/10 03:52:46;;;;;;;53.10;31.10;;;;;;;9.63;66.41;99291.86;226045;1240;139384;-64
2022/11/10 03:58:07;;;;;;;74.30;48.20;;;;;;;9.74;66.74;99293.73;227348;1240;138640;-63
2022/11/10 04:03:28;;;;;;;47.40;30.60;;;;;;;9.88;67.02;99288.73;226491;1244;138120;-65
2022/11/10 04:08:59;;;;;;;43.60;28.40;;;;;;;9.95;66.58;99298.09;226202;1241;138261;-70
2022/11/10 04:20:02;;;;;;;43.50;27.40;;;;;;;9.96;66.53;99303.50;226241;1255;139112;-64
2022/11/10 04:25:24;;;;;;;43.50;29.60;;;;;;;10.04;66.66;99306.41;226334;1255;139451;-66
2022/11/10 04:30:45;;;;;;;44.90;28.30;;;;;;;10.11;66.48;99309.23;226092;1241;139152;-67
2022/11/10 04:36:09;;;;;;;44.00;29.00;;;;;;;10.16;66.60;99309.30;227524;1248;138798;-63
2022/11/10 04:41:31;;;;;;;45.90;29.00;;;;;;;10.15;66.15;99314.12;227210;1233;138698;-65
2022/11/10 04:46:53;;;;;;;45.50;28.90;;;;;;;10.18;66.21;99317.20;226015;1241;138821;-67
2022/11/10 04:52:14;;;;;;;50.30;31.80;;;;;;;10.12;66.33;99316.27;226402;1237;139254;-65
2022/11/10 04:57:36;;;;;;;41.60;27.80;;;;;;;10.08;66.04;99312.98;227242;1234;138696;-66
2022/11/10 05:02:59;;;;;;;42.20;27.70;;;;;;;10.00;65.71;99322.95;226565;1244;139400;-63
2022/11/10 05:08:21;;;;;;;40.60;28.10;;;;;;;10.00;66.01;99331.88;226483;1251;138843;-68
2022/11/10 05:13:43;;;;;;;43.20;29.50;;;;;;;10.08;66.35;99347.15;226344;1242;138241;-63
2022/11/10 05:19:05;;;;;;;46.00;29.20;;;;;;;10.10;66.10;99353.08;227518;1227;139589;-66
2022/11/10 05:24:27;;;;;;;40.40;28.60;;;;;;;10.10;66.12;99356.79;226638;1241;138613;-65
2022/11/10 05:29:48;;;;;;;42.20;28.00;;;;;;;10.12;66.35;99351.58;226578;1241;138843;-67
2022/11/10 05:35:10;;;;;;;42.60;27.60;;;;;;;10.08;66.29;99362.07;227491;1233;138799;-66
2022/11/10 05:40:32;;;;;;;44.30;27.80;;;;;;;10.06;66.36;99377.60;226436;1248;139084;-66
2022/11/10 05:45:54;;;;;;;40.00;27.40;;;;;;;10.12;66.42;99377.63;225900;1233;139306;-66
2022/11/10 05:51:15;;;;;;;43.80;27.70;;;;;;;10.19;66.53;99383.95;226298;1238;139292;-66
2022/11/10 05:56:37;;;;;;;42.50;28.00;;;;;;;10.31;66.53;99389.23;226688;1249;138963;-61
2022/11/10 06:01:58;;;;;;;45.40;28.80;;;;;;;10.38;66.65;99396.99;226348;1241;138135;-61
2022/11/10 06:07:20;;;;;;;44.70;29.40;;;;;;;10.43;66.89;99411.75;227502;1243;139129;-64
2022/11/10 06:12:42;;;;;;;42.20;27.00;;;;;;;10.49;66.70;99421.20;226624;1238;138660;-61
2022/11/10 06:18:03;;;;;;;44.30;27.50;;;;;;;10.51;66.72;99429.10;226567;1249;139640;-61
2022/11/10 06:23:25;;;;;;;48.50;30.00;;;;;;;10.48;66.55;99440.04;226111;1237;139344;-67
2022/11/10 06:28:47;;;;;;;43.60;26.90;;;;;;;10.57;66.91;99451.63;226087;1243;139225;-71
2022/11/10 06:34:09;;;;;;;41.50;27.50;;;;;;;10.66;66.58;99458.94;226929;1227;139112;-65
2022/11/10 06:39:30;;;;;;;42.70;27.80;;;;;;;10.73;66.73;99469.73;225834;1238;139996;-70
2022/11/10 06:44:52;;;;;;;37.80;25.30;;;;;;;10.77;66.67;99481.23;225744;1246;138487;-68
2022/11/10 06:50:14;;;;;;;43.80;27.00;;;;;;;10.80;66.77;99494.52;226651;1242;139065;-68
2022/11/10 06:55:35;;;;;;;43.60;27.70;;;;;;;10.86;66.86;99500.20;226496;1226;138690;-66
2022/11/10 07:01:00;;;;;;;41.40;27.50;;;;;;;10.94;66.72;99503.54;225424;1242;139596;-65
2022/11/10 07:06:22;;;;;;;40.50;25.90;;;;;;;10.99;66.43;99507.84;225931;1235;139454;-70
2022/11/10 07:11:43;;;;;;;40.00;25.10;;;;;;;11.11;66.79;99516.80;226745;1234;140955;-70
2022/11/10 07:17:05;;;;;;;43.40;25.90;;;;;;;11.17;66.51;99521.19;226653;1234;139241;-72
2022/11/10 07:22:28;;;;;;;41.30;25.50;;;;;;;11.25;66.54;99524.15;225713;1241;139677;-66
2022/11/10 07:27:58;;;;;;;40.30;25.80;;;;;;;11.28;66.61;99530.89;225305;1244;140237;-65
2022/11/10 07:33:20;;;;;;;43.00;26.60;;;;;;;11.33;66.69;99539.86;225562;1235;140201;-64
2022/11/10 07:38:42;;;;;;;42.70;25.20;;;;;;;11.33;66.31;99540.19;225583;1238;139312;-65
2022/11/10 07:44:03;;;;;;;39.80;26.20;;;;;;;11.31;66.31;99548.84;225658;1241;138445;-65
2022/11/10 07:49:25;;;;;;;40.80;25.40;;;;;;;11.36;66.14;99554.79;225305;1248;139671;-64
2022/11/10 07:54:46;;;;;;;42.20;26.20;;;;;;;11.45;66.87;99561.19;225729;1243;139490;-68
2022/11/10 08:00:11;;;;;;;45.20;27.00;;;;;;;11.53;66.63;99557.55;226856;1240;139136;-64
2022/11/10 08:05:33;;;;;;;41.10;27.10;;;;;;;11.57;66.73;99569.20;225516;1241;138970;-67
2022/11/10 08:10:56;;;;;;;46.30;28.00;;;;;;;11.57;66.91;99584.65;225375;1239;138755;-62
2022/11/10 08:16:18;;;;;;;44.20;27.60;;;;;;;11.53;66.89;99586.11;225884;1242;139455;-62
2022/11/10 08:21:39;;;;;;;47.90;28.00;;;;;;;11.52;66.82;99593.30;225801;1249;139229;-64
2022/11/10 08:27:01;;;;;;;47.00;27.40;;;;;;;11.58;66.87;99598.11;225305;1241;140138;-65
2022/11/10 08:32:22;;;;;;;45.90;27.30;;;;;;;11.64;67.06;99603.45;225356;1238;139648;-67
2022/11/10 08:37:43;;;;;;;43.50;27.80;;;;;;;11.72;67.29;99612.78;225676;1244;139202;-65
2022/11/10 08:43:06;;;;;;;43.90;28.50;;;;;;;11.77;67.57;99619.09;226591;1232;138418;-66
2022/11/10 08:48:27;;;;;;;43.50;27.30;;;;;;;11.77;67.14;99626.14;225299;1230;139143;-67
2022/11/10 08:53:49;;;;;;;42.20;26.80;;;;;;;11.77;67.49;99631.17;225411;1237;138479;-69
2022/11/10 08:59:11;;;;;;;49.10;27.80;;;;;;;11.81;67.48;99638.73;226638;1231;139869;-70
2022/11/10 09:04:33;;;;;;;46.80;28.10;;;;;;;11.88;67.72;99643.74;226530;1233;138969;-69
2022/11/10 09:09:55;;;;;;;44.70;28.00;;;;;;;11.91;68.06;99669.15;225316;1249;138459;-64
2022/11/10 09:15:28;;;;;;;48.30;28.90;;;;;;;11.90;67.76;99677.91;225589;1234;140131;-65
2022/11/10 09:20:50;;;;;;;44.40;26.40;;;;;;;11.88;67.61;99682.48;225635;1243;139211;-65
2022/11/10 09:26:11;;;;;;;42.30;27.50;;;;;;;11.84;67.71;99688.02;226689;1234;139197;-64
2022/11/10 09:31:33;;;;;;;43.40;25.80;;;;;;;11.88;68.04;99691.34;225633;1238;139803;-64
2022/11/10 09:36:54;;;;;;;44.50;26.20;;;;;;;11.96;68.07;99690.70;225748;1234;139625;-64
2022/11/10 09:42:38;;;;;;;19.60;27.40;;;;;;;12.07;68.26;99690.64;225878;1249;138344;-66
2022/11/10 09:48:14;;;;;;;47.80;29.00;;;;;;;12.16;68.26;99691.86;225821;1243;139496;-62
2022/11/10 09:53:43;;;;;;;56.20;33.90;;;;;;;12.25;68.48;99688.34;225831;1234;138629;-65
2022/11/10 09:59:32;;;;;;;46.50;28.00;;;;;;;12.39;68.32;99693.23;226684;1234;139069;-63
2022/11/10 10:05:13;;;;;;;51.30;29.40;;;;;;;12.47;68.38;99695.20;225832;1234;138853;-65
2022/11/10 10:10:48;;;;;;;44.40;27.30;;;;;;;12.57;68.44;99707.25;225692;1234;138395;-66
2022/11/10 10:16:26;;;;;;;46.90;27.80;;;;;;;12.67;68.29;99714.69;226540;1226;139250;-63
2022/11/10 10:22:24;;;;;;;44.60;27.10;;;;;;;12.67;67.87;99720.73;225392;1236;139956;-63
2022/11/10 10:27:56;;;;;;;44.60;26.70;;;;;;;12.70;68.18;99730.86;225378;1244;139473;-64
2022/11/10 10:33:21;;;;;;;46.40;28.60;;;;;;;12.75;68.10;99739.85;225206;1243;138986;-66
2022/11/10 10:38:45;;;;;;;48.80;28.50;;;;;;;12.76;68.16;99738.84;225613;1244;138901;-64
2022/11/10 10:44:16;;;;;;;44.90;28.60;;;;;;;12.77;67.91;99742.54;226728;1240;139116;-65
2022/11/10 10:49:37;;;;;;;45.60;27.70;;;;;;;12.83;68.25;99748.63;225291;1237;139007;-63
2022/11/10 10:55:01;;;;;;;41.00;25.60;;;;;;;12.92;68.19;99747.55;225358;1233;140342;-64
2022/11/10 11:00:23;;;;;;;47.50;28.00;;;;;;;13.01;68.29;99746.64;225888;1241;140200;-66
2022/11/10 11:06:00;;;;;;;40.20;25.40;;;;;;;13.07;68.14;99747.02;225828;1233;139516;-67
2022/11/10 11:11:34;;;;;;;41.50;26.30;;;;;;;13.09;68.04;99753.80;225621;1238;138938;-64
2022/11/10 11:17:11;;;;;;;45.70;27.00;;;;;;;13.08;68.16;99755.84;225684;1234;140193;-64
2022/11/10 11:23:10;;;;;;;43.50;26.70;;;;;;;13.11;67.84;99763.54;225384;1240;139183;-65
2022/11/10 11:29:00;;;;;;;43.30;26.50;;;;;;;13.13;67.76;99765.35;225792;1244;139901;-65
2022/11/10 11:34:47;;;;;;;40.20;24.40;;;;;;;13.22;68.18;99763.17;226371;1238;139251;-65
2022/11/10 11:40:47;;;;;;;40.10;24.80;;;;;;;13.33;68.25;99766.08;227277;1233;139076;-65
2022/11/10 11:46:13;;;;;;;39.20;23.40;;;;;;;13.37;68.13;99761.73;226871;1240;138868;-63
2022/11/10 11:51:53;;;;;;;39.90;24.40;;;;;;;13.37;68.20;99778.17;226181;1236;139189;-66
2022/11/10 11:57:33;;;;;;;38.70;23.50;;;;;;;13.37;68.12;99789.75;226443;1242;140228;-64
2022/11/10 12:03:35;;;;;;;39.00;24.40;;;;;;;13.40;68.21;99787.41;226034;1245;257928;-65
2022/11/10 12:09:05;;;;;;;45.50;25.30;;;;;;;13.40;68.26;99792.55;226087;1250;138540;-66
2022/11/10 12:14:47;;;;;;;41.60;25.40;;;;;;;13.37;68.23;99795.29;226160;1250;138541;-66
2022/11/10 12:20:39;;;;;;;42.50;24.00;;;;;;;13.35;68.06;99798.26;227375;1242;138618;-65
2022/11/10 12:26:28;;;;;;;46.10;25.50;;;;;;;13.38;68.29;99809.44;227442;1230;140950;-66
2022/11/10 12:32:05;;;;;;;41.00;24.30;;;;;;;13.44;68.32;99809.42;226318;1234;138911;-64
2022/11/10 12:37:36;;;;;;;38.60;24.20;;;;;;;13.44;68.25;99814.04;226457;1241;138229;-62
2022/11/10 12:43:05;;;;;;;41.10;24.70;;;;;;;13.48;68.28;99812.95;226249;1239;139649;-66
2022/11/10 12:48:38;;;;;;;48.70;26.40;;;;;;;13.47;68.15;99822.42;227422;1237;138330;-67
2022/11/10 12:54:00;;;;;;;44.50;24.50;;;;;;;13.48;68.06;99826.16;227580;1242;139517;-64
2022/11/10 12:59:31;;;;;;;41.20;24.70;;;;;;;13.58;68.02;99824.31;226515;1241;138854;-64
2022/11/10 13:05:21;;;;;;;42.40;26.30;;;;;;;13.69;68.20;99827.35;226782;1237;139548;-64
2022/11/10 13:10:52;;;;;;;40.30;25.20;;;;;;;13.79;68.08;99831.36;226485;1239;139320;-66
2022/11/10 13:16:41;;;;;;;43.80;25.10;;;;;;;13.85;67.96;99834.20;226514;1236;138819;-63
2022/11/10 13:22:07;;;;;;;40.20;24.30;;;;;;;13.84;67.74;99842.95;226488;1234;141803;-64
2022/11/10 13:27:34;;;;;;;78.50;46.50;;;;;;;13.82;67.54;99845.80;225537;1237;138527;-64
2022/11/10 13:33:22;;;;;;;41.80;25.10;;;;;;;13.84;67.60;99855.64;226382;1219;139785;-64
2022/11/10 13:38:44;;;;;;;44.50;26.20;;;;;;;13.87;67.49;99868.52;225423;1244;139011;-65
2022/11/10 13:44:22;;;;;;;44.10;25.10;;;;;;;13.87;67.35;99872.95;226602;1234;138979;-64
2022/11/10 13:49:55;;;;;;;47.30;26.90;;;;;;;13.81;67.35;99877.40;225563;1235;140140;-65
2022/11/10 13:55:43;;;;;;;43.40;24.90;;;;;;;13.76;67.32;99880.45;226428;1228;138972;-65
2022/11/10 14:01:32;;;;;;;37.90;24.10;;;;;;;13.72;67.35;99882.41;226465;1227;139245;-63
2022/11/10 14:06:58;;;;;;;40.60;23.70;;;;;;;13.76;67.44;99887.73;225423;1237;139606;-63
2022/11/10 14:12:53;;;;;;;40.00;23.40;;;;;;;13.84;67.57;99887.73;226695;1227;140583;-64
2022/11/10 14:18:23;;;;;;;40.20;24.90;;;;;;;13.90;67.61;99902.00;226679;1235;139340;-65
2022/11/10 14:24:01;;;;;;;43.40;24.50;;;;;;;13.86;67.22;99906.39;225421;1240;139211;-67
2022/11/10 14:29:32;;;;;;;43.30;25.10;;;;;;;13.77;66.95;99920.13;226443;1236;139065;-66
2022/11/10 14:34:55;;;;;;;39.70;23.90;;;;;;;13.68;66.94;99926.55;225468;1237;139301;-65
2022/11/10 15:09:31;;;;;;;42.90;27.20;;;;;;;28.73;29.28;99909.13;223362;1238;635875;-68
2022/11/10 15:14:58;;;;;;;43.50;27.00;;;;;;;20.96;42.77;99929.56;225349;1241;138409;-68
2022/11/10 15:20:39;;;;;;;44.30;26.70;;;;;;;17.11;53.25;99956.64;225020;1251;138909;-65
2022/11/10 15:26:03;;;;;;;48.60;27.20;;;;;;;14.92;60.58;99974.09;225865;1248;138006;-67
2022/11/10 15:31:29;;;;;;;42.00;24.60;;;;;;;13.66;65.05;99987.10;224963;1255;138206;-65
2022/11/10 15:37:07;;;;;;;;;;;;;;;12.94;68.09;99995.89;225011;1249;137820;-66
2022/11/10 15:42:29;;;;;;;42.10;24.90;;;;;;;12.52;70.41;100002.86;225084;1240;124451;-67
2022/11/10 15:47:51;;;;;;;43.50;24.60;;;;;;;12.34;71.18;100008.65;225820;1241;139826;-68
2022/11/10 15:53:20;;;;;;;44.10;24.80;;;;;;;12.27;71.57;100012.39;224425;1233;140272;-63
2022/11/10 15:58:48;;;;;;;44.60;25.40;;;;;;;12.14;72.03;100019.66;224933;1254;138079;-63
2022/11/10 16:04:10;;;;;;;44.60;24.50;;;;;;;12.05;72.74;100030.29;225862;1241;138198;-63
2022/11/10 16:09:32;;;;;;;46.50;25.30;;;;;;;12.06;73.06;100039.30;224585;1248;139369;-68
2022/11/10 16:14:54;;;;;;;40.30;23.00;;;;;;;12.34;72.57;100044.40;224613;1239;138823;-67
2022/11/10 16:20:13;;;;;;;42.90;24.70;;;;;;;14.71;67.32;100037.64;222492;1252;635146;-68
2022/11/10 16:25:37;;;;;;;41.10;24.80;;;;;;;13.83;63.69;100055.65;225084;1238;138654;-67
2022/11/10 16:30:58;;;;;;;42.50;23.00;;;;;;;13.29;64.51;100060.58;225490;1249;138435;-68
2022/11/10 16:36:27;;;;;;;38.90;23.00;;;;;;;13.12;65.86;100062.93;226897;1237;138678;-67
2022/11/10 16:41:48;;;;;;;38.30;23.10;;;;;;;13.02;66.15;100070.06;224994;1246;139015;-71
2022/11/10 16:47:18;;;;;;;41.70;24.20;;;;;;;13.03;66.20;100076.10;226334;1233;138358;-66
2022/11/10 16:52:39;;;;;;;44.40;24.00;;;;;;;13.05;66.27;100083.13;226897;1241;138201;-67
2022/11/10 16:58:01;;;;;;;39.50;24.50;;;;;;;13.02;66.24;100092.87;226760;1241;138144;-67
2022/11/10 17:03:35;;;;;;;43.90;24.60;;;;;;;12.94;66.29;100108.13;226744;1237;138736;-68
2022/11/10 17:09:05;;;;;;;41.90;24.90;;;;;;;12.86;66.27;100121.02;226916;1235;139567;-67
2022/11/10 17:14:27;;;;;;;39.90;23.10;;;;;;;12.76;66.64;100129.73;226317;1233;139844;-69
2022/11/10 17:19:50;;;;;;;39.90;24.10;;;;;;;12.70;66.85;100143.05;226472;1237;138977;-68
2022/11/10 17:25:22;;;;;;;37.60;23.80;;;;;;;12.75;67.18;100146.89;227604;1242;140462;-69
2022/11/10 17:30:45;;;;;;;48.00;27.00;;;;;;;12.82;67.15;100159.74;226547;1248;138571;-68
2022/11/10 17:36:17;;;;;;;44.10;25.70;;;;;;;12.78;66.82;100165.80;227529;1237;138745;-67
2022/11/10 17:41:39;;;;;;;147.40;92.40;;;;;;;12.80;67.24;100173.92;226476;1235;138827;-67
2022/11/10 17:47:00;;;;;;;42.70;26.40;;;;;;;12.78;67.24;100173.83;226193;1234;138746;-69
2022/11/10 17:52:22;;;;;;;40.80;24.70;;;;;;;12.67;67.11;100183.63;226396;1233;138696;-68
2022/11/10 17:57:44;;;;;;;40.20;24.40;;;;;;;12.66;67.30;100189.73;226268;1230;139207;-67
2022/11/10 18:03:08;;;;;;;42.20;25.30;;;;;;;12.70;66.94;100197.39;227552;1237;139205;-69
2022/11/10 18:08:30;;;;;;;40.70;25.10;;;;;;;12.62;67.12;100204.41;226638;1248;138400;-68
2022/11/10 18:13:51;;;;;;;42.60;24.30;;;;;;;12.57;67.17;100205.35;226041;1238;138176;-68
2022/11/10 18:19:13;;;;;;;43.70;24.90;;;;;;;12.54;67.51;100209.22;226711;1233;139043;-65
2022/11/10 18:24:36;;;;;;;40.30;25.30;;;;;;;12.53;67.39;100204.15;226342;1229;138160;-71
2022/11/10 18:29:57;;;;;;;36.90;24.70;;;;;;;12.35;67.30;100207.38;227423;1226;138810;-69
2022/11/10 18:35:19;;;;;;;38.60;24.00;;;;;;;12.19;67.83;100213.36;226115;1232;138628;-68
2022/11/10 18:40:41;;;;;;;42.90;24.10;;;;;;;12.12;68.17;100214.73;226424;1238;139888;-67
2022/11/10 18:46:09;;;;;;;46.40;25.90;;;;;;;12.16;68.14;100219.15;227478;1227;138950;-69
2022/11/10 18:51:33;;;;;;;41.80;25.40;;;;;;;12.24;68.27;100222.31;226199;1241;138418;-67
2022/11/10 18:56:57;;;;;;;44.50;25.40;;;;;;;12.27;68.05;100229.11;226725;1248;138863;-68
2022/11/10 19:02:19;;;;;;;44.80;25.50;;;;;;;12.24;68.03;100237.27;226817;1238;139346;-68
2022/11/10 19:07:41;;;;;;;40.40;25.00;;;;;;;12.19;68.12;100236.81;226725;1238;139952;-66
2022/11/10 19:13:03;;;;;;;45.30;26.30;;;;;;;12.23;68.45;100234.67;226634;1242;138480;-66
2022/11/10 19:18:28;;;;;;;43.40;26.20;;;;;;;12.24;68.24;100238.36;225871;1241;138502;-67
2022/11/10 19:23:56;;;;;;;46.20;26.80;;;;;;;12.28;68.29;100243.99;226178;1225;139364;-68
2022/11/10 19:29:18;;;;;;;43.60;27.30;;;;;;;12.33;68.23;100243.25;225995;1233;138964;-69
2022/11/10 19:34:39;;;;;;;45.90;27.40;;;;;;;12.34;67.99;100251.05;226390;1233;138655;-67
2022/11/10 19:40:01;;;;;;;44.30;26.40;;;;;;;12.28;67.86;100255.24;226378;1235;138538;-68
2022/11/10 19:45:22;;;;;;;64.10;39.20;;;;;;;12.23;68.46;100264.54;227567;1227;138629;-70
2022/11/10 19:50:52;;;;;;;44.70;26.60;;;;;;;12.24;68.12;100269.14;226556;1226;138829;-66
2022/11/10 19:56:19;;;;;;;48.10;27.10;;;;;;;12.08;67.70;100288.41;225443;1226;138526;-66
2022/11/10 20:01:41;;;;;;;46.80;26.60;;;;;;;11.94;68.12;100290.33;226540;1243;138427;-75
2022/11/10 20:12:44;;;;;;;40.90;25.00;;;;;;;11.86;68.34;100297.13;227532;1234;139195;-70
2022/11/10 20:18:08;;;;;;;44.70;27.90;;;;;;;11.96;68.76;100308.38;227699;1234;138633;-73
2022/11/10 20:23:29;;;;;;;49.30;27.90;;;;;;;11.96;68.08;100314.58;226710;1241;139443;-71
2022/11/10 20:28:51;;;;;;;45.90;28.70;;;;;;;11.91;68.10;100316.27;226396;1241;138658;-69
2022/11/10 20:34:12;;;;;;;52.40;30.00;;;;;;;11.84;67.95;100324.58;227352;1237;139062;-66
2022/11/10 20:39:34;;;;;;;44.00;27.10;;;;;;;11.76;68.30;100333.30;226654;1233;139064;-71
2022/11/10 20:45:05;;;;;;;53.50;28.20;;;;;;;11.72;68.18;100345.19;227595;1231;139269;-69
2022/11/10 20:50:26;;;;;;;50.00;29.10;;;;;;;11.73;68.13;100351.39;226703;1244;139856;-68
2022/11/10 20:55:48;;;;;;;52.40;29.70;;;;;;;11.74;68.06;100355.45;227568;1234;138456;-71
2022/11/10 21:01:15;;;;;;;52.20;28.50;;;;;;;11.68;67.81;100340.42;227628;1233;138637;-65
2022/11/10 21:06:37;;;;;;;44.50;28.10;;;;;;;11.56;68.37;100338.96;228307;1206;139283;-65
2022/11/10 21:17:39;;;;;;;48.20;29.40;;;;;;;11.49;68.62;100339.33;227876;1234;139034;-64
2022/11/10 21:23:04;;;;;;;53.30;29.90;;;;;;;11.47;68.57;100347.58;227876;1234;140050;-64
2022/11/10 21:28:26;;;;;;;49.30;29.80;;;;;;;11.48;68.66;100352.52;227446;1239;139042;-63
2022/11/10 21:33:49;;;;;;;48.90;29.80;;;;;;;11.47;68.33;100356.30;226813;1232;139681;-66
2022/11/10 21:39:10;;;;;;;48.80;29.70;;;;;;;11.45;68.40;100358.84;226797;1239;138424;-65
2022/11/10 21:44:33;;;;;;;48.40;29.60;;;;;;;11.37;68.39;100360.46;227080;1244;138514;-65
2022/11/10 21:49:54;;;;;;;46.80;29.10;;;;;;;11.30;68.37;100363.98;227366;1237;138935;-65
2022/11/10 21:55:16;;;;;;;46.90;29.00;;;;;;;11.20;68.57;100362.44;227394;1237;139817;-64
2022/11/10 22:00:38;;;;;;;47.70;28.50;;;;;;;11.09;68.43;100365.41;228127;1225;138866;-66
2022/11/10 22:06:04;;;;;;;45.90;28.10;;;;;;;11.06;68.61;100367.49;226995;1238;139239;-66
2022/11/10 22:22:54;;;;;;;47.40;29.40;;;;;;;10.90;68.77;100376.52;227063;1238;138509;-68
2022/11/10 22:28:18;;;;;;;53.80;32.00;;;;;;;10.87;68.73;100375.23;226674;1234;138502;-64
2022/11/10 22:33:41;;;;;;;49.30;30.60;;;;;;;10.72;68.68;100381.16;226596;1241;139604;-64
2022/11/10 22:39:04;;;;;;;47.60;27.10;;;;;;;10.68;68.96;100380.80;226921;1241;138789;-67
2022/11/10 22:44:25;;;;;;;51.80;28.50;;;;;;;10.64;69.10;100381.85;227820;1227;138331;-64
2022/11/10 22:49:49;;;;;;;47.10;29.20;;;;;;;10.67;68.94;100387.42;226999;1238;139325;-66
2022/11/10 22:55:11;;;;;;;50.90;30.80;;;;;;;10.68;68.65;100389.88;227914;1225;139046;-65
2022/11/10 23:00:32;;;;;;;49.70;30.10;;;;;;;10.70;68.94;100396.33;226560;1241;138581;-64
2022/11/10 23:05:54;;;;;;;46.40;29.20;;;;;;;10.66;68.67;100398.98;226541;1234;139857;-64
2022/11/10 23:11:28;;;;;;;50.90;31.90;;;;;;;10.57;68.51;100403.23;227538;1244;138588;-65
2022/11/10 23:16:50;;;;;;;47.90;30.10;;;;;;;10.50;68.94;100404.25;226804;1241;138653;-66
2022/11/10 23:22:12;;;;;;;54.60;32.10;;;;;;;10.39;69.00;100401.82;227569;1233;138673;-65
2022/11/10 23:27:34;;;;;;;53.30;33.70;;;;;;;10.37;69.14;100401.35;226670;1238;139530;-65
2022/11/10 23:32:55;;;;;;;53.80;33.00;;;;;;;10.42;69.42;100400.46;226549;1251;138744;-64
2022/11/10 23:38:17;;;;;;;57.50;33.80;;;;;;;10.41;69.08;100400.13;227550;1234;139044;-64
2022/11/10 23:43:38;;;;;;;53.30;34.20;;;;;;;10.36;68.91;100406.20;226653;1255;139338;-66
2022/11/10 23:49:00;;;;;;;56.20;34.30;;;;;;;10.31;69.29;100414.56;226770;1239;139338;-63
2022/11/10 23:54:22;;;;;;;56.70;34.30;;;;;;;10.23;68.96;100419.45;227637;1230;138693;-64
2022/11/10 23:59:43;;;;;;;58.10;32.20;;;;;;;10.12;69.32;100422.52;226636;1244;138328;-63
